sensor_id;sensor_type;location;lat;lon;timestamp;P1;durP1;ratioP1;P2;durP2;ratioP2
14708;SDS011;7445;50.774;4.944;2022-10-17T00:01:35;14.90;;;13.17;;
14708;SDS011;7445;50.774;4.944;2022-10-17T00:04:06;14.93;;;13.37;;
14708;SDS011;7445;50.774;4.944;2022-10-17T00:06:36;13.10;;;11.90;;
14708;SDS011;7445;50.774;4.944;2022-10-17T00:09:02;16.30;;;13.13;;
14708;SDS011;7445;50.774;4.944;2022-10-17T00:11:29;15.23;;;13.67;;
14708;SDS011;7445;50.774;4.944;2022-10-17T00:13:55;14.47;;;11.93;;
14708;SDS011;7445;50.774;4.944;2022-10-17T00:16:25;14.57;;;13.17;;
14708;SDS011;7445;50.774;4.944;2022-10-17T00:19:05;19.60;;;13.20;;
14708;SDS011;7445;50.774;4.944;2022-10-17T00:21:33;16.57;;;13.80;;
14708;SDS011;7445;50.774;4.944;2022-10-17T00:23:59;14.00;;;12.50;;
14708;SDS011;7445;50.774;4.944;2022-10-17T00:26:27;13.83;;;12.50;;
14708;SDS011;7445;50.774;4.944;2022-10-17T00:28:53;78.90;;;17.17;;
14708;SDS011;7445;50.774;4.944;2022-10-17T00:31:19;13.47;;;12.00;;
14708;SDS011;7445;50.774;4.944;2022-10-17T00:33:47;20.67;;;13.57;;
14708;SDS011;7445;50.774;4.944;2022-10-17T00:36:15;14.93;;;13.53;;
14708;SDS011;7445;50.774;4.944;2022-10-17T00:38:43;30.53;;;14.57;;
14708;SDS011;7445;50.774;4.944;2022-10-17T00:41:15;15.63;;;12.57;;
14708;SDS011;7445;50.774;4.944;2022-10-17T00:46:35;15.27;;;13.70;;
14708;SDS011;7445;50.774;4.944;2022-10-17T00:49:07;18.40;;;15.03;;
14708;SDS011;7445;50.774;4.944;2022-10-17T00:51:42;16.30;;;14.47;;
14708;SDS011;7445;50.774;4.944;2022-10-17T00:54:10;14.63;;;12.93;;
14708;SDS011;7445;50.774;4.944;2022-10-17T00:56:38;19.90;;;13.83;;
14708;SDS011;7445;50.774;4.944;2022-10-17T00:59:04;16.30;;;14.67;;
14708;SDS011;7445;50.774;4.944;2022-10-17T01:01:36;16.57;;;14.33;;
14708;SDS011;7445;50.774;4.944;2022-10-17T01:04:03;16.77;;;13.73;;
14708;SDS011;7445;50.774;4.944;2022-10-17T01:06:29;24.40;;;14.23;;
14708;SDS011;7445;50.774;4.944;2022-10-17T01:08:56;14.90;;;13.30;;
14708;SDS011;7445;50.774;4.944;2022-10-17T01:11:38;15.80;;;14.00;;
14708;SDS011;7445;50.774;4.944;2022-10-17T01:17:08;20.43;;;18.47;;
14708;SDS011;7445;50.774;4.944;2022-10-17T01:26:18;14.70;;;13.37;;
14708;SDS011;7445;50.774;4.944;2022-10-17T01:31:44;14.60;;;13.23;;
14708;SDS011;7445;50.774;4.944;2022-10-17T01:34:17;15.93;;;14.33;;
14708;SDS011;7445;50.774;4.944;2022-10-17T01:36:49;14.83;;;13.30;;
14708;SDS011;7445;50.774;4.944;2022-10-17T01:39:29;17.77;;;13.30;;
14708;SDS011;7445;50.774;4.944;2022-10-17T01:42:08;15.00;;;12.93;;
14708;SDS011;7445;50.774;4.944;2022-10-17T01:44:36;16.17;;;14.53;;
14708;SDS011;7445;50.774;4.944;2022-10-17T01:47:12;17.03;;;15.33;;
14708;SDS011;7445;50.774;4.944;2022-10-17T01:49:56;16.23;;;14.63;;
14708;SDS011;7445;50.774;4.944;2022-10-17T01:52:52;19.53;;;13.10;;
14708;SDS011;7445;50.774;4.944;2022-10-17T01:55:24;17.07;;;13.27;;
14708;SDS011;7445;50.774;4.944;2022-10-17T01:57:57;16.40;;;14.83;;
14708;SDS011;7445;50.774;4.944;2022-10-17T02:00:27;18.20;;;13.50;;
14708;SDS011;7445;50.774;4.944;2022-10-17T02:03:00;16.33;;;14.40;;
14708;SDS011;7445;50.774;4.944;2022-10-17T02:05:30;15.73;;;14.13;;
14708;SDS011;7445;50.774;4.944;2022-10-17T02:08:01;17.00;;;15.20;;
14708;SDS011;7445;50.774;4.944;2022-10-17T02:10:33;15.60;;;13.80;;
14708;SDS011;7445;50.774;4.944;2022-10-17T02:24:24;15.50;;;13.97;;
14708;SDS011;7445;50.774;4.944;2022-10-17T02:27:05;14.23;;;12.80;;
14708;SDS011;7445;50.774;4.944;2022-10-17T02:29:54;15.17;;;13.47;;
14708;SDS011;7445;50.774;4.944;2022-10-17T02:32:37;14.30;;;12.80;;
14708;SDS011;7445;50.774;4.944;2022-10-17T02:35:09;58.60;;;52.43;;
14708;SDS011;7445;50.774;4.944;2022-10-17T02:37:38;22.77;;;20.47;;
14708;SDS011;7445;50.774;4.944;2022-10-17T02:40:08;19.37;;;16.70;;
14708;SDS011;7445;50.774;4.944;2022-10-17T02:42:38;16.13;;;14.53;;
14708;SDS011;7445;50.774;4.944;2022-10-17T02:45:09;31.93;;;29.53;;
14708;SDS011;7445;50.774;4.944;2022-10-17T02:50:14;17.03;;;15.70;;
14708;SDS011;7445;50.774;4.944;2022-10-17T02:55:40;15.90;;;13.77;;
14708;SDS011;7445;50.774;4.944;2022-10-17T02:58:15;16.33;;;13.80;;
14708;SDS011;7445;50.774;4.944;2022-10-17T03:00:45;14.00;;;12.47;;
14708;SDS011;7445;50.774;4.944;2022-10-17T03:03:22;14.10;;;11.93;;
14708;SDS011;7445;50.774;4.944;2022-10-17T03:05:50;13.97;;;12.63;;
14708;SDS011;7445;50.774;4.944;2022-10-17T03:08:18;12.93;;;11.70;;
14708;SDS011;7445;50.774;4.944;2022-10-17T03:10:44;15.93;;;12.70;;
14708;SDS011;7445;50.774;4.944;2022-10-17T03:13:10;14.57;;;13.07;;
14708;SDS011;7445;50.774;4.944;2022-10-17T03:15:35;13.90;;;11.47;;
14708;SDS011;7445;50.774;4.944;2022-10-17T03:18:01;14.97;;;11.93;;
14708;SDS011;7445;50.774;4.944;2022-10-17T03:20:27;16.20;;;12.13;;
14708;SDS011;7445;50.774;4.944;2022-10-17T03:22:52;16.87;;;12.13;;
14708;SDS011;7445;50.774;4.944;2022-10-17T03:25:18;13.03;;;11.83;;
14708;SDS011;7445;50.774;4.944;2022-10-17T03:27:44;15.23;;;13.33;;
14708;SDS011;7445;50.774;4.944;2022-10-17T03:30:10;14.07;;;11.90;;
14708;SDS011;7445;50.774;4.944;2022-10-17T03:32:35;13.13;;;11.83;;
14708;SDS011;7445;50.774;4.944;2022-10-17T03:35:01;14.37;;;12.03;;
14708;SDS011;7445;50.774;4.944;2022-10-17T03:37:27;13.23;;;11.60;;
14708;SDS011;7445;50.774;4.944;2022-10-17T03:39:54;16.43;;;13.00;;
14708;SDS011;7445;50.774;4.944;2022-10-17T03:42:23;13.70;;;12.43;;
14708;SDS011;7445;50.774;4.944;2022-10-17T03:44:50;13.00;;;11.40;;
14708;SDS011;7445;50.774;4.944;2022-10-17T03:47:17;14.97;;;12.23;;
14708;SDS011;7445;50.774;4.944;2022-10-17T03:49:43;14.23;;;12.83;;
14708;SDS011;7445;50.774;4.944;2022-10-17T03:52:12;11.63;;;10.43;;
14708;SDS011;7445;50.774;4.944;2022-10-17T03:54:40;13.40;;;11.97;;
14708;SDS011;7445;50.774;4.944;2022-10-17T03:57:08;17.60;;;13.73;;
14708;SDS011;7445;50.774;4.944;2022-10-17T03:59:34;13.93;;;11.60;;
14708;SDS011;7445;50.774;4.944;2022-10-17T04:01:59;15.20;;;13.60;;
14708;SDS011;7445;50.774;4.944;2022-10-17T04:04:26;13.83;;;12.33;;
14708;SDS011;7445;50.774;4.944;2022-10-17T04:06:52;23.10;;;20.00;;
14708;SDS011;7445;50.774;4.944;2022-10-17T04:09:17;17.07;;;15.43;;
14708;SDS011;7445;50.774;4.944;2022-10-17T04:11:43;16.67;;;14.50;;
14708;SDS011;7445;50.774;4.944;2022-10-17T04:14:08;14.70;;;12.03;;
14708;SDS011;7445;50.774;4.944;2022-10-17T04:16:34;28.97;;;26.87;;
14708;SDS011;7445;50.774;4.944;2022-10-17T04:19:01;22.67;;;20.67;;
14708;SDS011;7445;50.774;4.944;2022-10-17T04:21:35;15.57;;;14.00;;
14708;SDS011;7445;50.774;4.944;2022-10-17T04:24:01;14.60;;;13.17;;
14708;SDS011;7445;50.774;4.944;2022-10-17T04:26:28;14.20;;;13.00;;
14708;SDS011;7445;50.774;4.944;2022-10-17T04:28:54;13.53;;;12.13;;
14708;SDS011;7445;50.774;4.944;2022-10-17T04:31:19;12.43;;;11.13;;
14708;SDS011;7445;50.774;4.944;2022-10-17T04:33:47;12.97;;;11.53;;
14708;SDS011;7445;50.774;4.944;2022-10-17T04:36:18;13.50;;;12.13;;
14708;SDS011;7445;50.774;4.944;2022-10-17T04:38:50;16.97;;;12.30;;
14708;SDS011;7445;50.774;4.944;2022-10-17T04:41:17;12.33;;;11.07;;
14708;SDS011;7445;50.774;4.944;2022-10-17T04:43:43;14.50;;;11.07;;
14708;SDS011;7445;50.774;4.944;2022-10-17T04:46:36;13.03;;;11.70;;
14708;SDS011;7445;50.774;4.944;2022-10-17T04:49:03;11.07;;;10.03;;
14708;SDS011;7445;50.774;4.944;2022-10-17T04:51:29;11.47;;;10.47;;
14708;SDS011;7445;50.774;4.944;2022-10-17T04:53:54;11.97;;;10.87;;
14708;SDS011;7445;50.774;4.944;2022-10-17T04:56:23;10.93;;;9.80;;
14708;SDS011;7445;50.774;4.944;2022-10-17T04:58:49;11.20;;;10.03;;
14708;SDS011;7445;50.774;4.944;2022-10-17T05:01:17;12.20;;;11.10;;
14708;SDS011;7445;50.774;4.944;2022-10-17T05:03:46;11.10;;;10.20;;
14708;SDS011;7445;50.774;4.944;2022-10-17T05:06:14;11.63;;;10.57;;
14708;SDS011;7445;50.774;4.944;2022-10-17T05:08:42;11.20;;;10.13;;
14708;SDS011;7445;50.774;4.944;2022-10-17T05:11:15;10.70;;;9.70;;
14708;SDS011;7445;50.774;4.944;2022-10-17T05:13:42;11.67;;;10.57;;
14708;SDS011;7445;50.774;4.944;2022-10-17T05:16:07;12.73;;;9.47;;
14708;SDS011;7445;50.774;4.944;2022-10-17T05:18:33;11.90;;;10.07;;
14708;SDS011;7445;50.774;4.944;2022-10-17T05:21:01;11.67;;;10.67;;
14708;SDS011;7445;50.774;4.944;2022-10-17T05:23:54;11.00;;;9.77;;
14708;SDS011;7445;50.774;4.944;2022-10-17T05:26:22;15.07;;;10.53;;
14708;SDS011;7445;50.774;4.944;2022-10-17T05:28:53;11.47;;;10.17;;
14708;SDS011;7445;50.774;4.944;2022-10-17T05:31:18;9.47;;;8.67;;
14708;SDS011;7445;50.774;4.944;2022-10-17T05:33:44;11.47;;;10.07;;
14708;SDS011;7445;50.774;4.944;2022-10-17T05:36:10;11.90;;;9.47;;
14708;SDS011;7445;50.774;4.944;2022-10-17T05:38:37;10.23;;;9.13;;
14708;SDS011;7445;50.774;4.944;2022-10-17T05:41:03;11.20;;;10.10;;
14708;SDS011;7445;50.774;4.944;2022-10-17T05:43:33;18.23;;;10.83;;
14708;SDS011;7445;50.774;4.944;2022-10-17T05:46:01;18.40;;;16.83;;
14708;SDS011;7445;50.774;4.944;2022-10-17T05:48:28;13.33;;;12.00;;
14708;SDS011;7445;50.774;4.944;2022-10-17T05:50:57;12.13;;;10.93;;
14708;SDS011;7445;50.774;4.944;2022-10-17T05:53:24;15.33;;;11.63;;
14708;SDS011;7445;50.774;4.944;2022-10-17T05:56:00;10.80;;;9.90;;
14708;SDS011;7445;50.774;4.944;2022-10-17T05:58:44;12.00;;;10.33;;
14708;SDS011;7445;50.774;4.944;2022-10-17T06:01:11;14.67;;;12.53;;
14708;SDS011;7445;50.774;4.944;2022-10-17T06:03:44;11.83;;;10.77;;
14708;SDS011;7445;50.774;4.944;2022-10-17T06:06:11;12.03;;;10.63;;
14708;SDS011;7445;50.774;4.944;2022-10-17T06:08:38;12.67;;;10.93;;
14708;SDS011;7445;50.774;4.944;2022-10-17T06:11:04;16.43;;;11.07;;
14708;SDS011;7445;50.774;4.944;2022-10-17T06:13:30;9.23;;;8.33;;
14708;SDS011;7445;50.774;4.944;2022-10-17T06:15:56;16.77;;;10.03;;
14708;SDS011;7445;50.774;4.944;2022-10-17T06:18:23;11.07;;;10.03;;
14708;SDS011;7445;50.774;4.944;2022-10-17T06:20:50;12.57;;;9.83;;
14708;SDS011;7445;50.774;4.944;2022-10-17T06:23:16;9.97;;;9.07;;
14708;SDS011;7445;50.774;4.944;2022-10-17T06:25:42;10.63;;;9.60;;
14708;SDS011;7445;50.774;4.944;2022-10-17T06:28:09;9.87;;;8.93;;
14708;SDS011;7445;50.774;4.944;2022-10-17T06:30:38;9.63;;;8.73;;
14708;SDS011;7445;50.774;4.944;2022-10-17T06:33:05;9.57;;;8.37;;
14708;SDS011;7445;50.774;4.944;2022-10-17T06:35:31;10.03;;;9.27;;
14708;SDS011;7445;50.774;4.944;2022-10-17T06:37:57;10.03;;;8.93;;
14708;SDS011;7445;50.774;4.944;2022-10-17T06:40:22;10.07;;;9.07;;
14708;SDS011;7445;50.774;4.944;2022-10-17T06:45:19;10.77;;;8.90;;
14708;SDS011;7445;50.774;4.944;2022-10-17T06:47:44;10.10;;;8.93;;
14708;SDS011;7445;50.774;4.944;2022-10-17T06:50:10;11.97;;;9.37;;
14708;SDS011;7445;50.774;4.944;2022-10-17T06:55:07;39.80;;;36.00;;
14708;SDS011;7445;50.774;4.944;2022-10-17T06:57:33;59.10;;;53.10;;
14708;SDS011;7445;50.774;4.944;2022-10-17T06:59:59;53.73;;;48.30;;
14708;SDS011;7445;50.774;4.944;2022-10-17T07:02:24;36.03;;;32.53;;
14708;SDS011;7445;50.774;4.944;2022-10-17T07:04:50;60.40;;;54.40;;
14708;SDS011;7445;50.774;4.944;2022-10-17T07:07:20;34.03;;;30.80;;
14708;SDS011;7445;50.774;4.944;2022-10-17T07:09:46;15.60;;;14.10;;
14708;SDS011;7445;50.774;4.944;2022-10-17T07:12:13;11.00;;;10.10;;
14708;SDS011;7445;50.774;4.944;2022-10-17T07:14:40;11.83;;;10.63;;
14708;SDS011;7445;50.774;4.944;2022-10-17T07:17:06;11.23;;;10.03;;
14708;SDS011;7445;50.774;4.944;2022-10-17T07:19:31;12.20;;;8.03;;
14708;SDS011;7445;50.774;4.944;2022-10-17T07:21:57;12.90;;;7.40;;
14708;SDS011;7445;50.774;4.944;2022-10-17T07:24:23;10.87;;;8.10;;
14708;SDS011;7445;50.774;4.944;2022-10-17T07:26:48;12.40;;;11.10;;
14708;SDS011;7445;50.774;4.944;2022-10-17T07:29:14;21.20;;;18.97;;
14708;SDS011;7445;50.774;4.944;2022-10-17T07:31:39;10.33;;;9.53;;
14708;SDS011;7445;50.774;4.944;2022-10-17T07:34:08;9.70;;;8.60;;
14708;SDS011;7445;50.774;4.944;2022-10-17T07:39:02;7.23;;;6.63;;
14708;SDS011;7445;50.774;4.944;2022-10-17T07:43:59;8.27;;;7.63;;
14708;SDS011;7445;50.774;4.944;2022-10-17T07:48:54;11.80;;;7.00;;
14708;SDS011;7445;50.774;4.944;2022-10-17T07:51:19;14.87;;;8.17;;
14708;SDS011;7445;50.774;4.944;2022-10-17T07:53:54;15.37;;;8.10;;
14708;SDS011;7445;50.774;4.944;2022-10-17T07:56:22;7.97;;;7.37;;
14708;SDS011;7445;50.774;4.944;2022-10-17T07:58:51;14.13;;;7.23;;
14708;SDS011;7445;50.774;4.944;2022-10-17T08:01:17;15.37;;;7.70;;
14708;SDS011;7445;50.774;4.944;2022-10-17T08:03:46;9.50;;;7.73;;
14708;SDS011;7445;50.774;4.944;2022-10-17T08:06:14;9.40;;;7.87;;
14708;SDS011;7445;50.774;4.944;2022-10-17T08:08:40;12.57;;;9.07;;
14708;SDS011;7445;50.774;4.944;2022-10-17T08:11:07;8.83;;;7.83;;
14708;SDS011;7445;50.774;4.944;2022-10-17T08:13:34;8.93;;;8.00;;
14708;SDS011;7445;50.774;4.944;2022-10-17T08:16:01;16.37;;;9.17;;
14708;SDS011;7445;50.774;4.944;2022-10-17T08:18:39;13.07;;;7.80;;
14708;SDS011;7445;50.774;4.944;2022-10-17T08:21:06;12.07;;;7.90;;
14708;SDS011;7445;50.774;4.944;2022-10-17T08:23:32;9.50;;;8.80;;
14708;SDS011;7445;50.774;4.944;2022-10-17T08:25:59;12.73;;;8.67;;
14708;SDS011;7445;50.774;4.944;2022-10-17T08:28:26;10.07;;;6.13;;
14708;SDS011;7445;50.774;4.944;2022-10-17T08:30:52;8.27;;;7.53;;
14708;SDS011;7445;50.774;4.944;2022-10-17T08:33:17;17.33;;;7.70;;
14708;SDS011;7445;50.774;4.944;2022-10-17T08:35:43;8.73;;;8.03;;
14708;SDS011;7445;50.774;4.944;2022-10-17T08:38:08;8.00;;;7.20;;
14708;SDS011;7445;50.774;4.944;2022-10-17T08:40:34;13.20;;;7.07;;
14708;SDS011;7445;50.774;4.944;2022-10-17T08:45:35;8.83;;;7.47;;
14708;SDS011;7445;50.774;4.944;2022-10-17T08:48:24;17.60;;;9.20;;
14708;SDS011;7445;50.774;4.944;2022-10-17T08:50:57;9.50;;;8.07;;
14708;SDS011;7445;50.774;4.944;2022-10-17T08:56:47;12.20;;;8.47;;
14708;SDS011;7445;50.774;4.944;2022-10-17T08:58:48;8.90;;;7.57;;
14708;SDS011;7445;50.774;4.944;2022-10-17T09:15:33;22.67;;;10.00;;
14708;SDS011;7445;50.774;4.944;2022-10-17T09:18:10;20.80;;;11.97;;
14708;SDS011;7445;50.774;4.944;2022-10-17T09:20:50;13.20;;;10.13;;
14708;SDS011;7445;50.774;4.944;2022-10-17T09:23:24;10.03;;;9.23;;
14708;SDS011;7445;50.774;4.944;2022-10-17T09:25:56;22.43;;;10.87;;
14708;SDS011;7445;50.774;4.944;2022-10-17T09:28:29;13.13;;;9.23;;
14708;SDS011;7445;50.774;4.944;2022-10-17T09:31:00;9.87;;;8.73;;
14708;SDS011;7445;50.774;4.944;2022-10-17T09:33:28;16.53;;;8.90;;
14708;SDS011;7445;50.774;4.944;2022-10-17T09:35:58;8.77;;;7.97;;
14708;SDS011;7445;50.774;4.944;2022-10-17T09:38:28;10.60;;;8.07;;
14708;SDS011;7445;50.774;4.944;2022-10-17T09:41:02;12.37;;;9.37;;
14708;SDS011;7445;50.774;4.944;2022-10-17T09:43:28;12.30;;;8.63;;
14708;SDS011;7445;50.774;4.944;2022-10-17T09:45:59;9.03;;;8.27;;
14708;SDS011;7445;50.774;4.944;2022-10-17T09:49:28;13.80;;;8.83;;
14708;SDS011;7445;50.774;4.944;2022-10-17T09:51:36;11.70;;;9.47;;
14708;SDS011;7445;50.774;4.944;2022-10-17T09:54:03;8.77;;;7.87;;
14708;SDS011;7445;50.774;4.944;2022-10-17T10:02:24;9.13;;;8.17;;
14708;SDS011;7445;50.774;4.944;2022-10-17T10:04:56;10.70;;;8.37;;
14708;SDS011;7445;50.774;4.944;2022-10-17T10:07:24;12.30;;;8.53;;
14708;SDS011;7445;50.774;4.944;2022-10-17T10:09:52;10.23;;;7.70;;
14708;SDS011;7445;50.774;4.944;2022-10-17T10:12:46;10.40;;;8.80;;
14708;SDS011;7445;50.774;4.944;2022-10-17T10:15:48;9.83;;;7.40;;
14708;SDS011;7445;50.774;4.944;2022-10-17T10:21:20;10.90;;;8.90;;
14708;SDS011;7445;50.774;4.944;2022-10-17T10:26:46;40.87;;;36.77;;
14708;SDS011;7445;50.774;4.944;2022-10-17T10:29:42;30.83;;;27.60;;
14708;SDS011;7445;50.774;4.944;2022-10-17T10:32:32;50.23;;;45.03;;
14708;SDS011;7445;50.774;4.944;2022-10-17T10:49:06;8.57;;;6.20;;
14708;SDS011;7445;50.774;4.944;2022-10-17T10:51:54;13.10;;;6.03;;
14708;SDS011;7445;50.774;4.944;2022-10-17T10:54:24;7.97;;;7.20;;
14708;SDS011;7445;50.774;4.944;2022-10-17T10:57:07;10.40;;;5.13;;
14708;SDS011;7445;50.774;4.944;2022-10-17T10:59:53;12.10;;;5.67;;
14708;SDS011;7445;50.774;4.944;2022-10-17T11:05:59;8.43;;;5.40;;
14708;SDS011;7445;50.774;4.944;2022-10-17T11:11:17;6.43;;;5.83;;
14708;SDS011;7445;50.774;4.944;2022-10-17T11:14:10;16.30;;;6.43;;
14708;SDS011;7445;50.774;4.944;2022-10-17T11:17:22;7.37;;;5.63;;
14708;SDS011;7445;50.774;4.944;2022-10-17T11:22:31;8.47;;;5.10;;
14708;SDS011;7445;50.774;4.944;2022-10-17T11:27:47;7.07;;;5.80;;
14708;SDS011;7445;50.774;4.944;2022-10-17T11:30:13;10.47;;;5.80;;
14708;SDS011;7445;50.774;4.944;2022-10-17T11:35:20;10.47;;;6.03;;
14708;SDS011;7445;50.774;4.944;2022-10-17T11:38:06;11.27;;;6.83;;
14708;SDS011;7445;50.774;4.944;2022-10-17T11:40:44;7.27;;;5.57;;
14708;SDS011;7445;50.774;4.944;2022-10-17T11:43:27;5.83;;;5.40;;
14708;SDS011;7445;50.774;4.944;2022-10-17T11:46:05;12.17;;;5.87;;
14708;SDS011;7445;50.774;4.944;2022-10-17T11:48:51;9.97;;;6.63;;
14708;SDS011;7445;50.774;4.944;2022-10-17T11:51:22;6.93;;;6.30;;
14708;SDS011;7445;50.774;4.944;2022-10-17T11:53:56;16.73;;;7.37;;
14708;SDS011;7445;50.774;4.944;2022-10-17T11:56:31;10.10;;;7.17;;
14708;SDS011;7445;50.774;4.944;2022-10-17T12:02:03;9.03;;;5.80;;
14708;SDS011;7445;50.774;4.944;2022-10-17T12:07:44;8.70;;;7.73;;
14708;SDS011;7445;50.774;4.944;2022-10-17T12:10:32;10.00;;;7.23;;
14708;SDS011;7445;50.774;4.944;2022-10-17T12:13:56;12.37;;;8.00;;
14708;SDS011;7445;50.774;4.944;2022-10-17T12:15:57;8.43;;;7.63;;
14708;SDS011;7445;50.774;4.944;2022-10-17T12:18:41;10.73;;;7.83;;
14708;SDS011;7445;50.774;4.944;2022-10-17T12:21:07;9.63;;;8.77;;
14708;SDS011;7445;50.774;4.944;2022-10-17T12:23:34;9.63;;;7.57;;
14708;SDS011;7445;50.774;4.944;2022-10-17T12:26:03;8.23;;;7.53;;
14708;SDS011;7445;50.774;4.944;2022-10-17T12:33:52;9.40;;;8.43;;
14708;SDS011;7445;50.774;4.944;2022-10-17T12:41:58;16.70;;;8.73;;
14708;SDS011;7445;50.774;4.944;2022-10-17T12:44:34;12.87;;;8.17;;
14708;SDS011;7445;50.774;4.944;2022-10-17T12:47:26;11.83;;;9.00;;
14708;SDS011;7445;50.774;4.944;2022-10-17T12:53:17;11.20;;;10.10;;
14708;SDS011;7445;50.774;4.944;2022-10-17T12:55:54;28.67;;;10.83;;
14708;SDS011;7445;50.774;4.944;2022-10-17T12:58:43;11.10;;;9.57;;
14708;SDS011;7445;50.774;4.944;2022-10-17T13:01:30;9.27;;;8.27;;
14708;SDS011;7445;50.774;4.944;2022-10-17T13:03:58;11.93;;;9.10;;
14708;SDS011;7445;50.774;4.944;2022-10-17T13:06:30;9.50;;;8.73;;
14708;SDS011;7445;50.774;4.944;2022-10-17T13:09:06;12.77;;;10.17;;
14708;SDS011;7445;50.774;4.944;2022-10-17T13:11:39;14.97;;;10.47;;
14708;SDS011;7445;50.774;4.944;2022-10-17T13:14:10;13.60;;;10.23;;
14708;SDS011;7445;50.774;4.944;2022-10-17T13:16:39;14.80;;;10.00;;
14708;SDS011;7445;50.774;4.944;2022-10-17T13:19:19;15.43;;;11.13;;
14708;SDS011;7445;50.774;4.944;2022-10-17T13:24:31;15.50;;;11.60;;
14708;SDS011;7445;50.774;4.944;2022-10-17T13:27:01;12.73;;;11.17;;
14708;SDS011;7445;50.774;4.944;2022-10-17T13:29:28;11.07;;;10.13;;
14708;SDS011;7445;50.774;4.944;2022-10-17T13:32:03;12.63;;;11.30;;
14708;SDS011;7445;50.774;4.944;2022-10-17T13:34:30;18.20;;;11.27;;
14708;SDS011;7445;50.774;4.944;2022-10-17T13:36:58;17.37;;;11.10;;
14708;SDS011;7445;50.774;4.944;2022-10-17T13:39:28;17.70;;;11.27;;
14708;SDS011;7445;50.774;4.944;2022-10-17T13:42:00;16.63;;;10.57;;
14708;SDS011;7445;50.774;4.944;2022-10-17T13:44:27;15.50;;;11.40;;
14708;SDS011;7445;50.774;4.944;2022-10-17T13:46:58;16.60;;;11.90;;
14708;SDS011;7445;50.774;4.944;2022-10-17T13:49:35;16.13;;;12.07;;
14708;SDS011;7445;50.774;4.944;2022-10-17T13:52:12;16.77;;;12.40;;
14708;SDS011;7445;50.774;4.944;2022-10-17T13:54:42;13.70;;;12.37;;
14708;SDS011;7445;50.774;4.944;2022-10-17T13:59:58;12.53;;;11.23;;
14708;SDS011;7445;50.774;4.944;2022-10-17T14:02:27;18.50;;;11.93;;
14708;SDS011;7445;50.774;4.944;2022-10-17T14:04:58;12.33;;;10.73;;
14708;SDS011;7445;50.774;4.944;2022-10-17T14:07:42;11.20;;;10.27;;
14708;SDS011;7445;50.774;4.944;2022-10-17T14:10:17;13.50;;;11.90;;
14708;SDS011;7445;50.774;4.944;2022-10-17T14:12:48;11.60;;;10.40;;
14708;SDS011;7445;50.774;4.944;2022-10-17T14:15:15;14.60;;;12.67;;
14708;SDS011;7445;50.774;4.944;2022-10-17T14:17:42;17.50;;;11.30;;
14708;SDS011;7445;50.774;4.944;2022-10-17T14:20:18;15.30;;;11.93;;
14708;SDS011;7445;50.774;4.944;2022-10-17T14:22:47;13.10;;;11.73;;
14708;SDS011;7445;50.774;4.944;2022-10-17T14:25:28;15.23;;;12.97;;
14708;SDS011;7445;50.774;4.944;2022-10-17T14:28:06;13.63;;;12.47;;
14708;SDS011;7445;50.774;4.944;2022-10-17T14:30:36;14.43;;;12.10;;
14708;SDS011;7445;50.774;4.944;2022-10-17T14:35:55;15.20;;;11.10;;
14708;SDS011;7445;50.774;4.944;2022-10-17T14:38:23;12.27;;;10.73;;
